F/V Fleur Des Vagues — FPEJ — position and weather

sailwx.info

Track history (hours):
 
Tides and Currents Weather Stations Pressure Air Temp Water Temp Dewpoint Dewpoint Depression Visibility Wind Speed Wind Dir Waves Ship Positions

F/V Fleur Des Vagues

Last reported at 2014-Jul-31 12:10 UTC. Time now 2014-Aug-01 12:01 UTC.
Position N 46°30' W 001°47'.

Length 16 m.

Type: Fishing. MMSI: 227893000.

Date/timePositionNaut miles runAvg speedWind from/ knotsBaromVisibWave heightAir tempDewpointWater temp
2014-Jul-31 12:10N 46°30' W 001°47'0 0.0
2014-Jul-31 11:33N 46°30' W 001°47'3 2.7
2014-Jul-31 10:34N 46°28' W 001°50'9 8.5
2014-Jul-31 09:34N 46°24' W 002°01'2 1.7
2014-Jul-31 08:33N 46°23' W 001°60'1 1.0
2014-Jul-31 07:34N 46°24' W 002°01'0 0.4
2014-Jul-31 06:33N 46°23' W 002°01'1 1.1
2014-Jul-31 05:33N 46°22' W 002°01'1 1.2
2014-Jul-31 04:33N 46°23' W 002°01'1 1.1
2014-Jul-31 03:33N 46°22' W 002°00'1 0.5
2014-Jul-31 02:34N 46°23' W 002°00'5 5.2
2014-Jul-31 01:34N 46°25' W 001°54'7 6.5
2014-Jul-31 00:34N 46°30' W 001°47'0 0.0
2014-Jul-30 23:34N 46°30' W 001°47'0 0.0
2014-Jul-30 22:33N 46°30' W 001°47'0 0.0
2014-Jul-30 21:34N 46°30' W 001°47'0 0.0
2014-Jul-30 20:33N 46°30' W 001°47'0 0.0
2014-Jul-30 19:33N 46°30' W 001°47'0 0.0
2014-Jul-30 18:34N 46°30' W 001°47'0 0.0
2014-Jul-30 17:33N 46°30' W 001°47'0 0.0
2014-Jul-30 16:34N 46°30' W 001°47'0 0.0
2014-Jul-30 15:34N 46°30' W 001°47'0 0.0
2014-Jul-30 14:34N 46°30' W 001°47'0 0.0
2014-Jul-30 13:34N 46°30' W 001°47'3 3.1
2014-Jul-30 12:34N 46°27' W 001°49'9 8.9
2014-Jul-30 11:33N 46°22' W 001°60'1 0.7
2014-Jul-30 10:33N 46°22' W 001°60'3 2.7
2014-Jul-30 09:33N 46°25' W 002°02'2 2.1
2014-Jul-30 08:33N 46°23' W 002°01'1 1.3
2014-Jul-30 07:34N 46°24' W 002°02'0 0.5
2014-Jul-30 06:34N 46°24' W 002°02'1 1.2
2014-Jul-30 05:33N 46°23' W 002°00'2 1.9
2014-Jul-30 04:33N 46°25' W 002°01'2 1.5
2014-Jul-30 03:33N 46°23' W 002°00'1 0.6
2014-Jul-30 02:34N 46°24' W 002°01'5 5.1
2014-Jul-30 01:33N 46°26' W 001°55'6 6.3
2014-Jul-30 00:34N 46°30' W 001°47'0 0.0
2014-Jul-29 23:34N 46°30' W 001°47'0 0.0
2014-Jul-29 22:34N 46°30' W 001°47'0 0.0
2014-Jul-29 21:33N 46°30' W 001°47'0 0.0
2014-Jul-29 20:34N 46°30' W 001°47'0 0.0
2014-Jul-29 19:34N 46°30' W 001°47'0 0.0
2014-Jul-29 18:34N 46°30' W 001°47'0 0.1
2014-Jul-29 17:34N 46°30' W 001°47'0 0.0
2014-Jul-29 16:34N 46°30' W 001°47'0 0.0
2014-Jul-29 15:33N 46°30' W 001°47'0 0.0
2014-Jul-29 14:33N 46°30' W 001°47'0 0.1
2014-Jul-29 13:33N 46°30' W 001°47'2 2.3
2014-Jul-29 12:34N 46°28' W 001°48'10 9.5
2014-Jul-29 11:33N 46°23' W 002°00'3 2.5
2014-Jul-29 10:33N 46°25' W 002°02'2 2.1
2014-Jul-29 09:33N 46°26' W 001°59'1 1.4
2014-Jul-29 08:34N 46°26' W 002°01'1 0.8
2014-Jul-29 07:33N 46°27' W 002°00'3 2.7
2014-Jul-29 06:34N 46°24' W 002°01'1 1.2
2014-Jul-29 05:34N 46°25' W 002°00'1 0.6
2014-Jul-29 04:33N 46°25' W 001°60'0 0.4
2014-Jul-29 03:33N 46°26' W 002°00'0 0.3
2014-Jul-29 02:33N 46°26' W 002°00'4 4.2
2014-Jul-29 01:34N 46°27' W 001°54'6 5.8
2014-Jul-29 00:34N 46°30' W 001°47'0 0.0
2014-Jul-28 23:34N 46°30' W 001°47'0 0.0
2014-Jul-28 22:33N 46°30' W 001°47'0 0.0
2014-Jul-28 21:34N 46°30' W 001°47'0 0.0
2014-Jul-28 20:34N 46°30' W 001°47'0 0.0
2014-Jul-28 19:34N 46°30' W 001°47'0 0.0
2014-Jul-28 18:34N 46°30' W 001°47'0 0.0
2014-Jul-28 17:33N 46°30' W 001°47'0 0.0
2014-Jul-28 16:33N 46°30' W 001°47'0 0.0
2014-Jul-28 15:33N 46°30' W 001°47'0 0.0
2014-Jul-28 14:33N 46°30' W 001°47'2 2.0
2014-Jul-28 13:33N 46°28' W 001°49'8 8.1
2014-Jul-28 12:33N 46°26' W 002°01'2 2.2
2014-Jul-28 11:30N 46°28' W 002°03'1 0.5
2014-Jul-28 10:33N 46°28' W 002°04'3 1.3
2014-Jul-28 08:33N 46°25' W 002°02'3 2.2
2014-Jul-28 07:25N 46°28' W 002°04'1 1.6
2014-Jul-28 06:33N 46°29' W 002°04'2 1.7
2014-Jul-28 05:33N 46°27' W 002°03'0 0.3
2014-Jul-28 04:24N 46°28' W 002°03'2 1.9
2014-Jul-28 03:33N 46°29' W 002°04'2 2.0
2014-Jul-28 02:34N 46°28' W 002°02'4 4.2
2014-Jul-28 01:33N 46°27' W 001°56'7 6.8
2014-Jul-28 00:34N 46°30' W 001°47'0 0.0
2014-Jul-27 23:33N 46°30' W 001°47'0 0.0
2014-Jul-27 22:33N 46°30' W 001°47'0 0.0
2014-Jul-27 21:33N 46°30' W 001°47'0 0.0
2014-Jul-27 20:33N 46°30' W 001°47'0 0.0
2014-Jul-27 19:33N 46°30' W 001°47'0 0.0
2014-Jul-27 18:33N 46°30' W 001°47'0 0.0
2014-Jul-27 17:33N 46°30' W 001°47'0 0.0
2014-Jul-27 16:33N 46°30' W 001°47'0 0.0
2014-Jul-27 15:33N 46°30' W 001°47'0 0.0
2014-Jul-27 14:33N 46°30' W 001°47'0 0.0
2014-Jul-27 13:33N 46°30' W 001°47'0 0.0
2014-Jul-27 12:33N 46°30' W 001°47'1 0.8
2014-Jul-27 11:33N 46°29' W 001°47'9 9.3
2014-Jul-27 10:33N 46°27' W 002°00'3 2.8
2014-Jul-27 09:33N 46°28' W 002°04'3 3.0
2014-Jul-27 08:33N 46°28' W 002°08'3 3.1
2014-Jul-27 07:33N 46°31' W 002°11'2 1.4
2014-Jul-27 06:24N 46°32' W 002°12'1 1.6
2014-Jul-27 05:33N 46°31' W 002°11'1 0.8
2014-Jul-27 04:32N 46°32' W 002°12'1 0.9
2014-Jul-27 03:34N 46°31' W 002°11'1 0.6
2014-Jul-27 02:30N 46°32' W 002°11'1 1.0
2014-Jul-27 01:34N 46°31' W 002°10'1 0.8
2014-Jul-27 00:33N 46°32' W 002°11'1 1.3
2014-Jul-26 23:33N 46°31' W 002°09'0 0.2
2014-Jul-26 22:33N 46°30' W 002°09'0 0.1
2014-Jul-26 21:33N 46°30' W 002°09'0 0.0
2014-Jul-26 20:33N 46°30' W 002°09'0 0.0
2014-Jul-26 19:33N 46°30' W 002°09'0 0.0
2014-Jul-26 18:33N 46°30' W 002°09'0 0.0
2014-Jul-26 17:33N 46°30' W 002°09'1 0.6
2014-Jul-26 16:33N 46°31' W 002°10'1 0.9
2014-Jul-26 15:32N 46°31' W 002°11'6 5.9
2014-Jul-26 14:33N 46°26' W 002°06'9 9.0
2014-Jul-26 13:33N 46°19' W 001°58'9 9.2
2014-Jul-26 12:33N 46°12' W 001°51'11 9.5
2014-Jul-26 11:26N 46°03' W 001°42'20 9.2
2014-Jul-26 09:18N 45°44' W 001°32'7 9.0
2014-Jul-26 08:33N 45°38' W 001°29'2 0.5
2014-Jul-26 04:17N 45°36' W 001°28'2 2.1
2014-Jul-26 03:33N 45°34' W 001°28'1 1.0
2014-Jul-26 02:33N 45°35' W 001°27'0 0.3
2014-Jul-26 01:32N 45°35' W 001°28'2 0.6
2014-Jul-25 23:07N 45°37' W 001°28'0 0.0
2014-Jul-25 20:27N 45°37' W 001°28'0 0.0
2014-Jul-25 16:11N 45°37' W 001°28'0 0.0
2014-Jul-25 15:27N 45°37' W 001°28'0 0.0
2014-Jul-25 14:30N 45°37' W 001°28'0 0.0
2014-Jul-25 13:23N 45°37' W 001°28'2 0.7
2014-Jul-25 10:24N 45°35' W 001°27'1 0.3
2014-Jul-25 07:32N 45°36' W 001°28'0 0.2
2014-Jul-25 05:32N 45°35' W 001°28'1 1.3
2014-Jul-25 04:30N 45°37' W 001°27'2 1.9
2014-Jul-25 03:32N 45°35' W 001°27'1 1.2
2014-Jul-25 02:33N 45°36' W 001°27'0 0.3
2014-Jul-25 01:33N 45°36' W 001°27'2 1.7
2014-Jul-25 00:27N 45°34' W 001°27'0 0.1
2014-Jul-24 23:12N 45°34' W 001°27'0 0.1
2014-Jul-24 22:30N 45°34' W 001°27'0 0.0
2014-Jul-24 20:29N 45°34' W 001°27'0 0.0
2014-Jul-24 19:29N 45°34' W 001°27'0 0.0
2014-Jul-24 18:31N 45°34' W 001°27'0 0.0
2014-Jul-24 17:33N 45°34' W 001°27'0 0.0
2014-Jul-24 16:21N 45°34' W 001°27'0 0.0
2014-Jul-24 14:29N 45°34' W 001°27'0 0.0
2014-Jul-24 13:24N 45°34' W 001°27'2 1.7
2014-Jul-24 12:23N 45°36' W 001°27'1 0.7
2014-Jul-24 11:29N 45°36' W 001°28'1 0.3
2014-Jul-24 08:29N 45°35' W 001°28'2 0.9
2014-Jul-24 06:32N 45°37' W 001°27'2 1.9
2014-Jul-24 05:31N 45°35' W 001°27'9 1.8
2014-Jul-24 00:32N 45°32' W 001°15'8 6.9
2014-Jul-23 23:24N 45°35' W 001°05'16 0.9
2014-Jul-23 05:05N 45°39' W 001°27'2 2.2
2014-Jul-23 04:07N 45°37' W 001°27'2 2.5
2014-Jul-23 03:21N 45°39' W 001°26'2 2.0
2014-Jul-23 02:31N 45°37' W 001°26'4 1.7
2014-Jul-23 00:15N 45°41' W 001°26'0 0.4
2014-Jul-22 23:30N 45°41' W 001°26'0 0.0
2014-Jul-22 22:32N 45°41' W 001°26'0 0.0
2014-Jul-22 21:33N 45°41' W 001°26'0 0.0
2014-Jul-22 20:33N 45°41' W 001°26'0 0.0
2014-Jul-22 19:33N 45°41' W 001°26'0 0.0
2014-Jul-22 18:16N 45°41' W 001°26'0 0.0
2014-Jul-22 17:26N 45°41' W 001°26'0 0.0
2014-Jul-22 16:31N 45°41' W 001°26'0 0.0
2014-Jul-22 15:28N 45°41' W 001°26'0 0.0
2014-Jul-22 13:17N 45°41' W 001°26'  
Track history (hours):
 
Tides and Currents Weather Stations Pressure Air Temp Water Temp Dewpoint Dewpoint Depression Visibility Wind Speed Wind Dir Waves Ship Positions

F/V Fleur Des Vagues

Last reported at 2014-Jul-31 12:10 UTC. Time now 2014-Aug-01 12:01 UTC.
Position N 46°30' W 001°47'.

Length 16 m.

Type: Fishing. MMSI: 227893000.

Date/timePositionNaut miles runAvg speedWind from/ knotsBaromVisibWave heightAir tempDewpointWater temp
2014-Jul-31 12:10N 46°30' W 001°47'0 0.0
2014-Jul-31 11:33N 46°30' W 001°47'3 2.7
2014-Jul-31 10:34N 46°28' W 001°50'9 8.5
2014-Jul-31 09:34N 46°24' W 002°01'2 1.7
2014-Jul-31 08:33N 46°23' W 001°60'1 1.0
2014-Jul-31 07:34N 46°24' W 002°01'0 0.4
2014-Jul-31 06:33N 46°23' W 002°01'1 1.1
2014-Jul-31 05:33N 46°22' W 002°01'1 1.2
2014-Jul-31 04:33N 46°23' W 002°01'1 1.1
2014-Jul-31 03:33N 46°22' W 002°00'1 0.5
2014-Jul-31 02:34N 46°23' W 002°00'5 5.2
2014-Jul-31 01:34N 46°25' W 001°54'7 6.5
2014-Jul-31 00:34N 46°30' W 001°47'0 0.0
2014-Jul-30 23:34N 46°30' W 001°47'0 0.0
2014-Jul-30 22:33N 46°30' W 001°47'0 0.0
2014-Jul-30 21:34N 46°30' W 001°47'0 0.0
2014-Jul-30 20:33N 46°30' W 001°47'0 0.0
2014-Jul-30 19:33N 46°30' W 001°47'0 0.0
2014-Jul-30 18:34N 46°30' W 001°47'0 0.0
2014-Jul-30 17:33N 46°30' W 001°47'0 0.0
2014-Jul-30 16:34N 46°30' W 001°47'0 0.0
2014-Jul-30 15:34N 46°30' W 001°47'0 0.0
2014-Jul-30 14:34N 46°30' W 001°47'0 0.0
2014-Jul-30 13:34N 46°30' W 001°47'3 3.1
2014-Jul-30 12:34N 46°27' W 001°49'9 8.9
2014-Jul-30 11:33N 46°22' W 001°60'1 0.7
2014-Jul-30 10:33N 46°22' W 001°60'3 2.7
2014-Jul-30 09:33N 46°25' W 002°02'2 2.1
2014-Jul-30 08:33N 46°23' W 002°01'1 1.3
2014-Jul-30 07:34N 46°24' W 002°02'0 0.5
2014-Jul-30 06:34N 46°24' W 002°02'1 1.2
2014-Jul-30 05:33N 46°23' W 002°00'2 1.9
2014-Jul-30 04:33N 46°25' W 002°01'2 1.5
2014-Jul-30 03:33N 46°23' W 002°00'1 0.6
2014-Jul-30 02:34N 46°24' W 002°01'5 5.1
2014-Jul-30 01:33N 46°26' W 001°55'6 6.3
2014-Jul-30 00:34N 46°30' W 001°47'0 0.0
2014-Jul-29 23:34N 46°30' W 001°47'0 0.0
2014-Jul-29 22:34N 46°30' W 001°47'0 0.0
2014-Jul-29 21:33N 46°30' W 001°47'0 0.0
2014-Jul-29 20:34N 46°30' W 001°47'0 0.0
2014-Jul-29 19:34N 46°30' W 001°47'0 0.0
2014-Jul-29 18:34N 46°30' W 001°47'0 0.1
2014-Jul-29 17:34N 46°30' W 001°47'0 0.0
2014-Jul-29 16:34N 46°30' W 001°47'0 0.0
2014-Jul-29 15:33N 46°30' W 001°47'0 0.0
2014-Jul-29 14:33N 46°30' W 001°47'0 0.1
2014-Jul-29 13:33N 46°30' W 001°47'2 2.3
2014-Jul-29 12:34N 46°28' W 001°48'10 9.5
2014-Jul-29 11:33N 46°23' W 002°00'3 2.5
2014-Jul-29 10:33N 46°25' W 002°02'2 2.1
2014-Jul-29 09:33N 46°26' W 001°59'1 1.4
2014-Jul-29 08:34N 46°26' W 002°01'1 0.8
2014-Jul-29 07:33N 46°27' W 002°00'3 2.7
2014-Jul-29 06:34N 46°24' W 002°01'1 1.2
2014-Jul-29 05:34N 46°25' W 002°00'1 0.6
2014-Jul-29 04:33N 46°25' W 001°60'0 0.4
2014-Jul-29 03:33N 46°26' W 002°00'0 0.3
2014-Jul-29 02:33N 46°26' W 002°00'4 4.2
2014-Jul-29 01:34N 46°27' W 001°54'6 5.8
2014-Jul-29 00:34N 46°30' W 001°47'0 0.0
2014-Jul-28 23:34N 46°30' W 001°47'0 0.0
2014-Jul-28 22:33N 46°30' W 001°47'0 0.0
2014-Jul-28 21:34N 46°30' W 001°47'0 0.0
2014-Jul-28 20:34N 46°30' W 001°47'0 0.0
2014-Jul-28 19:34N 46°30' W 001°47'0 0.0
2014-Jul-28 18:34N 46°30' W 001°47'0 0.0
2014-Jul-28 17:33N 46°30' W 001°47'0 0.0
2014-Jul-28 16:33N 46°30' W 001°47'0 0.0
2014-Jul-28 15:33N 46°30' W 001°47'0 0.0
2014-Jul-28 14:33N 46°30' W 001°47'2 2.0
2014-Jul-28 13:33N 46°28' W 001°49'8 8.1
2014-Jul-28 12:33N 46°26' W 002°01'2 2.2
2014-Jul-28 11:30N 46°28' W 002°03'1 0.5
2014-Jul-28 10:33N 46°28' W 002°04'3 1.3
2014-Jul-28 08:33N 46°25' W 002°02'3 2.2
2014-Jul-28 07:25N 46°28' W 002°04'1 1.6
2014-Jul-28 06:33N 46°29' W 002°04'2 1.7
2014-Jul-28 05:33N 46°27' W 002°03'0 0.3
2014-Jul-28 04:24N 46°28' W 002°03'2 1.9
2014-Jul-28 03:33N 46°29' W 002°04'2 2.0
2014-Jul-28 02:34N 46°28' W 002°02'4 4.2
2014-Jul-28 01:33N 46°27' W 001°56'7 6.8
2014-Jul-28 00:34N 46°30' W 001°47'0 0.0
2014-Jul-27 23:33N 46°30' W 001°47'0 0.0
2014-Jul-27 22:33N 46°30' W 001°47'0 0.0
2014-Jul-27 21:33N 46°30' W 001°47'0 0.0
2014-Jul-27 20:33N 46°30' W 001°47'0 0.0
2014-Jul-27 19:33N 46°30' W 001°47'0 0.0
2014-Jul-27 18:33N 46°30' W 001°47'0 0.0
2014-Jul-27 17:33N 46°30' W 001°47'0 0.0
2014-Jul-27 16:33N 46°30' W 001°47'0 0.0
2014-Jul-27 15:33N 46°30' W 001°47'0 0.0
2014-Jul-27 14:33N 46°30' W 001°47'0 0.0
2014-Jul-27 13:33N 46°30' W 001°47'0 0.0
2014-Jul-27 12:33N 46°30' W 001°47'1 0.8
2014-Jul-27 11:33N 46°29' W 001°47'9 9.3
2014-Jul-27 10:33N 46°27' W 002°00'3 2.8
2014-Jul-27 09:33N 46°28' W 002°04'3 3.0
2014-Jul-27 08:33N 46°28' W 002°08'3 3.1
2014-Jul-27 07:33N 46°31' W 002°11'2 1.4
2014-Jul-27 06:24N 46°32' W 002°12'1 1.6
2014-Jul-27 05:33N 46°31' W 002°11'1 0.8
2014-Jul-27 04:32N 46°32' W 002°12'1 0.9
2014-Jul-27 03:34N 46°31' W 002°11'1 0.6
2014-Jul-27 02:30N 46°32' W 002°11'1 1.0
2014-Jul-27 01:34N 46°31' W 002°10'1 0.8
2014-Jul-27 00:33N 46°32' W 002°11'1 1.3
2014-Jul-26 23:33N 46°31' W 002°09'0 0.2
2014-Jul-26 22:33N 46°30' W 002°09'0 0.1
2014-Jul-26 21:33N 46°30' W 002°09'0 0.0
2014-Jul-26 20:33N 46°30' W 002°09'0 0.0
2014-Jul-26 19:33N 46°30' W 002°09'0 0.0
2014-Jul-26 18:33N 46°30' W 002°09'0 0.0
2014-Jul-26 17:33N 46°30' W 002°09'1 0.6
2014-Jul-26 16:33N 46°31' W 002°10'1 0.9
2014-Jul-26 15:32N 46°31' W 002°11'6 5.9
2014-Jul-26 14:33N 46°26' W 002°06'9 9.0
2014-Jul-26 13:33N 46°19' W 001°58'9 9.2
2014-Jul-26 12:33N 46°12' W 001°51'11 9.5
2014-Jul-26 11:26N 46°03' W 001°42'20 9.2
2014-Jul-26 09:18N 45°44' W 001°32'7 9.0
2014-Jul-26 08:33N 45°38' W 001°29'2 0.5
2014-Jul-26 04:17N 45°36' W 001°28'2 2.1
2014-Jul-26 03:33N 45°34' W 001°28'1 1.0
2014-Jul-26 02:33N 45°35' W 001°27'0 0.3
2014-Jul-26 01:32N 45°35' W 001°28'2 0.6
2014-Jul-25 23:07N 45°37' W 001°28'0 0.0
2014-Jul-25 20:27N 45°37' W 001°28'0 0.0
2014-Jul-25 16:11N 45°37' W 001°28'0 0.0
2014-Jul-25 15:27N 45°37' W 001°28'0 0.0
2014-Jul-25 14:30N 45°37' W 001°28'0 0.0
2014-Jul-25 13:23N 45°37' W 001°28'2 0.7
2014-Jul-25 10:24N 45°35' W 001°27'1 0.3
2014-Jul-25 07:32N 45°36' W 001°28'0 0.2
2014-Jul-25 05:32N 45°35' W 001°28'1 1.3
2014-Jul-25 04:30N 45°37' W 001°27'2 1.9
2014-Jul-25 03:32N 45°35' W 001°27'1 1.2
2014-Jul-25 02:33N 45°36' W 001°27'0 0.3
2014-Jul-25 01:33N 45°36' W 001°27'2 1.7
2014-Jul-25 00:27N 45°34' W 001°27'0 0.1
2014-Jul-24 23:12N 45°34' W 001°27'0 0.1
2014-Jul-24 22:30N 45°34' W 001°27'0 0.0
2014-Jul-24 20:29N 45°34' W 001°27'0 0.0
2014-Jul-24 19:29N 45°34' W 001°27'0 0.0
2014-Jul-24 18:31N 45°34' W 001°27'0 0.0
2014-Jul-24 17:33N 45°34' W 001°27'0 0.0
2014-Jul-24 16:21N 45°34' W 001°27'0 0.0
2014-Jul-24 14:29N 45°34' W 001°27'0 0.0
2014-Jul-24 13:24N 45°34' W 001°27'2 1.7
2014-Jul-24 12:23N 45°36' W 001°27'1 0.7
2014-Jul-24 11:29N 45°36' W 001°28'1 0.3
2014-Jul-24 08:29N 45°35' W 001°28'2 0.9
2014-Jul-24 06:32N 45°37' W 001°27'2 1.9
2014-Jul-24 05:31N 45°35' W 001°27'9 1.8
2014-Jul-24 00:32N 45°32' W 001°15'8 6.9
2014-Jul-23 23:24N 45°35' W 001°05'16 0.9
2014-Jul-23 05:05N 45°39' W 001°27'2 2.2
2014-Jul-23 04:07N 45°37' W 001°27'2 2.5
2014-Jul-23 03:21N 45°39' W 001°26'2 2.0
2014-Jul-23 02:31N 45°37' W 001°26'4 1.7
2014-Jul-23 00:15N 45°41' W 001°26'0 0.4
2014-Jul-22 23:30N 45°41' W 001°26'0 0.0
2014-Jul-22 22:32N 45°41' W 001°26'0 0.0
2014-Jul-22 21:33N 45°41' W 001°26'0 0.0
2014-Jul-22 20:33N 45°41' W 001°26'0 0.0
2014-Jul-22 19:33N 45°41' W 001°26'0 0.0
2014-Jul-22 18:16N 45°41' W 001°26'0 0.0
2014-Jul-22 17:26N 45°41' W 001°26'0 0.0
2014-Jul-22 16:31N 45°41' W 001°26'0 0.0
2014-Jul-22 15:28N 45°41' W 001°26'0 0.0
2014-Jul-22 13:17N 45°41' W 001°26'  

Dump ship's entire track history